Time;durP1;ratioP1;P1;durP2;ratioP2;P2;SDS_P1;SDS_P2;PMS_P1;PMS_P2;Temp;Humidity;BMP_temperature;BMP_pressure;BME280_temperature;BME280_humidity;BME280_pressure;Samples;Min_cycle;Max_cycle;Signal;HPM_P1;HPM_P2
2023/12/01 00:00:17;;;;;;;0.10;0.10;;;15.60;99.90;;;;;;4962703;28;20019;-78
2023/12/01 00:02:44;;;;;;;0.10;0.10;;;15.70;99.90;;;;;;4962637;28;20030;-82
2023/12/01 00:05:10;;;;;;;0.10;0.10;;;15.70;99.90;;;;;;4962702;28;20035;-81
2023/12/01 00:07:37;;;;;;;0.45;0.45;;;15.70;99.90;;;;;;4962291;28;20019;-86
2023/12/01 00:10:04;;;;;;;0.10;0.10;;;15.70;99.90;;;;;;4968098;28;20117;-78
2023/12/01 00:12:30;;;;;;;0.10;0.10;;;15.70;99.90;;;;;;4970387;28;20022;-88
2023/12/01 00:14:55;;;;;;;0.10;0.10;;;15.70;99.90;;;;;;4961454;28;20559;-77
2023/12/01 00:17:21;;;;;;;0.10;0.10;;;15.70;99.90;;;;;;4961748;28;20062;-79
2023/12/01 00:19:52;;;;;;;0.10;0.10;;;15.70;99.90;;;;;;4962033;28;20023;-77
2023/12/01 00:22:18;;;;;;;0.10;0.10;;;15.70;99.90;;;;;;4963642;28;20510;-86
2023/12/01 00:24:44;;;;;;;0.10;0.10;;;15.60;99.90;;;;;;4962263;28;20662;-78
2023/12/01 00:27:10;;;;;;;0.10;0.10;;;15.60;99.90;;;;;;4961707;28;20102;-77
2023/12/01 00:29:35;;;;;;;0.10;0.10;;;15.60;99.90;;;;;;4961959;28;20256;-81
2023/12/01 00:32:01;;;;;;;0.10;0.10;;;15.50;99.90;;;;;;4963669;28;20596;-78
2023/12/01 00:34:27;;;;;;;0.10;0.10;;;15.50;99.90;;;;;;4961703;28;20034;-85
2023/12/01 00:36:55;;;;;;;0.10;0.10;;;15.50;99.90;;;;;;4943861;28;20015;-79
2023/12/01 00:39:21;;;;;;;0.10;0.10;;;15.50;99.90;;;;;;4968535;28;20106;-89
2023/12/01 00:41:47;;;;;;;0.10;0.10;;;15.40;99.90;;;;;;4962549;28;20051;-76
2023/12/01 00:44:12;;;;;;;0.10;0.10;;;15.40;99.90;;;;;;4962165;28;20023;-84
2023/12/01 00:46:38;;;;;;;0.10;0.10;;;15.40;99.90;;;;;;4964567;28;20027;-81
2023/12/01 00:49:04;;;;;;;0.10;0.10;;;15.40;99.90;;;;;;4962460;28;20213;-77
2023/12/01 00:51:30;;;;;;;0.10;0.10;;;15.40;99.90;;;;;;4962434;28;20586;-79
2023/12/01 00:53:56;;;;;;;0.10;0.10;;;15.50;99.90;;;;;;4950085;28;20033;-77
2023/12/01 00:56:21;;;;;;;0.10;0.10;;;15.50;99.90;;;;;;4961969;28;20583;-83
2023/12/01 00:58:47;;;;;;;0.10;0.10;;;15.40;99.90;;;;;;4971319;28;20046;-84
2023/12/01 01:01:14;;;;;;;0.10;0.10;;;15.50;99.90;;;;;;4961556;28;20042;-79
2023/12/01 01:03:41;;;;;;;0.10;0.10;;;15.60;99.90;;;;;;4961357;28;20043;-81
2023/12/01 01:06:07;;;;;;;0.10;0.10;;;15.70;99.90;;;;;;4961457;28;20023;-78
2023/12/01 01:08:33;;;;;;;0.10;0.10;;;15.60;99.90;;;;;;4949295;28;20365;-80
2023/12/01 01:10:58;;;;;;;0.10;0.10;;;15.60;99.90;;;;;;4969226;28;20377;-77
2023/12/01 01:13:27;;;;;;;0.10;0.10;;;15.60;99.90;;;;;;4968322;28;20015;-78
2023/12/01 01:15:53;;;;;;;0.10;0.10;;;15.60;99.90;;;;;;4961432;28;20047;-86
2023/12/01 01:18:20;;;;;;;0.10;0.10;;;15.60;99.90;;;;;;4960961;28;20531;-84
2023/12/01 01:20:46;;;;;;;0.10;0.10;;;15.60;99.90;;;;;;4963324;28;20046;-82
2023/12/01 01:23:12;;;;;;;0.10;0.10;;;15.60;99.90;;;;;;4966404;28;20109;-77
2023/12/01 01:25:38;;;;;;;0.10;0.10;;;15.60;99.90;;;;;;4961514;28;20081;-87
2023/12/01 01:28:04;;;;;;;1.75;1.65;;;15.60;99.90;;;;;;4960735;28;20022;-87
2023/12/01 01:30:31;;;;;;;0.10;0.10;;;15.50;99.90;;;;;;4961330;28;20023;-79
2023/12/01 01:32:57;;;;;;;0.10;0.10;;;14.90;99.90;;;;;;4961682;28;20019;-78
2023/12/01 01:35:23;;;;;;;0.10;0.10;;;15.60;99.90;;;;;;4964706;28;20054;-79
2023/12/01 01:37:49;;;;;;;0.10;0.10;;;15.50;99.90;;;;;;4961492;28;20054;-77
2023/12/01 01:40:15;;;;;;;0.10;0.10;;;;;;;;;;4960912;28;20030;-83
2023/12/01 01:42:41;;;;;;;0.20;0.20;;;15.50;99.90;;;;;;4961033;28;20019;-82
2023/12/01 01:45:07;;;;;;;0.10;0.10;;;15.50;99.90;;;;;;4963314;28;20030;-77
2023/12/01 01:47:33;;;;;;;0.10;0.10;;;15.60;99.90;;;;;;4970169;28;20033;-81
2023/12/01 01:50:01;;;;;;;0.00;0.00;;;15.60;99.90;;;;;;4960682;28;20043;-83
2023/12/01 01:52:27;;;;;;;0.10;0.10;;;15.60;99.90;;;;;;4960593;28;20015;-78
2023/12/01 01:54:53;;;;;;;0.10;0.10;;;15.60;99.90;;;;;;4960448;28;20019;-86
2023/12/01 01:57:19;;;;;;;0.10;0.10;;;15.60;99.90;;;;;;4960140;28;20011;-78
2023/12/01 01:59:45;;;;;;;0.10;0.10;;;15.70;99.90;;;;;;4943606;28;20023;-78
2023/12/01 02:02:11;;;;;;;0.10;0.10;;;;;;;;;;4960378;28;20034;-82
2023/12/01 02:04:37;;;;;;;0.08;0.08;;;15.70;99.90;;;;;;4960960;28;20049;-82
2023/12/01 02:07:03;;;;;;;0.10;0.10;;;15.70;99.90;;;;;;4963536;28;20101;-81
2023/12/01 02:09:37;;;;;;;0.10;0.10;;;15.80;99.90;;;;;;4959766;28;20038;-77
2023/12/01 02:12:03;;;;;;;0.10;0.10;;;15.80;99.90;;;;;;4959976;28;20027;-82
2023/12/01 02:14:29;;;;;;;0.10;0.10;;;15.70;99.90;;;;;;4959978;28;20504;-84
2023/12/01 02:16:56;;;;;;;0.10;0.10;;;15.70;99.90;;;;;;4961184;28;20051;-75
2023/12/01 02:19:22;;;;;;;0.10;0.10;;;15.60;99.90;;;;;;4960240;28;20632;-82
2023/12/01 02:21:48;;;;;;;0.10;0.10;;;15.70;99.90;;;;;;4967767;28;20029;-90
2023/12/01 02:24:14;;;;;;;0.10;0.10;;;15.70;99.90;;;;;;4960414;28;20059;-81
2023/12/01 02:26:40;;;;;;;0.10;0.10;;;15.80;99.90;;;;;;4960804;28;20078;-77
2023/12/01 02:29:06;;;;;;;0.10;0.10;;;15.80;99.90;;;;;;4963511;28;20077;-82
2023/12/01 02:31:32;;;;;;;0.10;0.10;;;16.90;99.90;;;;;;4942908;28;20034;-80
2023/12/01 02:33:59;;;;;;;0.10;0.10;;;15.90;99.90;;;;;;4960965;28;20019;-80
2023/12/01 02:36:25;;;;;;;0.10;0.10;;;15.90;99.90;;;;;;4978946;28;20053;-78
2023/12/01 02:38:51;;;;;;;0.10;0.10;;;15.90;99.90;;;;;;4982788;28;20018;-76
2023/12/01 02:41:22;;;;;;;0.10;0.10;;;15.90;99.90;;;;;;4967430;28;20143;-76
2023/12/01 02:43:48;;;;;;;4.82;2.55;;;15.90;99.90;;;;;;4982762;28;20018;-76
2023/12/01 02:46:14;;;;;;;0.10;0.10;;;15.90;99.90;;;;;;4984513;28;20022;-84
2023/12/01 02:48:40;;;;;;;0.10;0.10;;;15.80;99.90;;;;;;4965874;28;20026;-81
2023/12/01 02:51:07;;;;;;;0.10;0.10;;;15.80;99.90;;;;;;4985151;28;20660;-77
2023/12/01 02:53:34;;;;;;;0.10;0.10;;;15.80;99.90;;;;;;4982823;28;20018;-76
2023/12/01 02:56:00;;;;;;;0.10;0.10;;;15.80;99.90;;;;;;4982429;28;20045;-76
2023/12/01 02:58:26;;;;;;;0.10;0.10;;;15.80;99.90;;;;;;4982654;28;20010;-75
2023/12/01 03:00:52;;;;;;;0.10;0.10;;;15.90;99.90;;;;;;4985443;28;20524;-77
2023/12/01 03:03:18;;;;;;;0.00;0.00;;;15.80;99.90;;;;;;4982653;28;20078;-75
2023/12/01 03:05:44;;;;;;;0.10;0.10;;;15.80;99.90;;;;;;4982461;28;20026;-79
2023/12/01 03:08:10;;;;;;;0.10;0.10;;;15.80;99.90;;;;;;4982535;28;20736;-78
2023/12/01 03:10:37;;;;;;;0.10;0.10;;;15.80;99.90;;;;;;4982592;28;20679;-78
2023/12/01 03:13:03;;;;;;;0.10;0.10;;;15.80;99.90;;;;;;4982260;28;20027;-77
2023/12/01 03:15:29;;;;;;;0.10;0.10;;;15.90;99.90;;;;;;4983205;28;20720;-79
2023/12/01 03:17:55;;;;;;;0.10;0.10;;;15.80;99.90;;;;;;4983028;28;20065;-86
2023/12/01 03:20:21;;;;;;;0.10;0.10;;;15.80;99.90;;;;;;4964466;28;20054;-80
2023/12/01 03:22:50;;;;;;;0.10;0.10;;;15.70;99.90;;;;;;4964695;28;20018;-76
2023/12/01 03:25:17;;;;;;;0.10;0.10;;;15.70;99.90;;;;;;4982402;28;20652;-75
2023/12/01 03:27:45;;;;;;;0.10;0.10;;;15.60;99.90;;;;;;4985446;28;20023;-76
2023/12/01 03:30:16;;;;;;;0.10;0.10;;;15.70;99.90;;;;;;4984636;28;20436;-77
2023/12/01 03:32:49;;;;;;;0.10;0.10;;;15.70;99.90;;;;;;4984920;28;20614;-81
2023/12/01 03:35:20;;;;;;;;;;;15.80;99.90;;;;;;4984198;28;20022;-77
2023/12/01 03:37:46;;;;;;;0.10;0.10;;;16.50;99.90;;;;;;4983580;28;20288;-77
2023/12/01 03:40:12;;;;;;;0.10;0.10;;;15.70;99.90;;;;;;4983110;28;20022;-76
2023/12/01 03:42:45;;;;;;;0.10;0.10;;;15.70;99.90;;;;;;4983472;28;20025;-79
2023/12/01 03:45:12;;;;;;;0.10;0.10;;;15.70;99.90;;;;;;4981915;28;20101;-76
2023/12/01 03:47:39;;;;;;;0.10;0.10;;;15.70;99.90;;;;;;4985336;28;20073;-77
2023/12/01 03:50:06;;;;;;;0.15;0.15;;;15.80;99.90;;;;;;4981058;28;20064;-76
2023/12/01 03:52:32;;;;;;;0.10;0.10;;;15.70;99.90;;;;;;4981536;28;20026;-80
2023/12/01 03:54:59;;;;;;;0.10;0.10;;;15.80;99.90;;;;;;4981581;28;20022;-83
2023/12/01 03:57:27;;;;;;;0.10;0.10;;;15.80;99.90;;;;;;4981521;28;20617;-80
2023/12/01 03:59:54;;;;;;;0.10;0.10;;;15.80;99.90;;;;;;4981586;28;20021;-76
2023/12/01 04:02:21;;;;;;;0.10;0.10;;;15.80;99.90;;;;;;4984930;28;20026;-77
2023/12/01 04:04:49;;;;;;;0.10;0.10;;;15.80;99.90;;;;;;4981825;28;20022;-79
2023/12/01 04:07:14;;;;;;;0.10;0.10;;;15.70;99.90;;;;;;4983510;28;20080;-77
2023/12/01 04:09:41;;;;;;;0.10;0.10;;;15.70;99.90;;;;;;4981539;28;20030;-76
2023/12/01 04:12:07;;;;;;;0.10;0.10;;;15.70;99.90;;;;;;4981271;28;20030;-75
2023/12/01 04:14:33;;;;;;;0.10;0.10;;;15.70;99.90;;;;;;4963897;28;20030;-81
2023/12/01 04:17:08;;;;;;;0.10;0.10;;;15.70;99.90;;;;;;4981854;28;20062;-76
2023/12/01 04:19:36;;;;;;;0.32;0.32;;;15.70;99.90;;;;;;4985054;28;20084;-75
2023/12/01 04:22:04;;;;;;;0.10;0.10;;;15.70;99.90;;;;;;4984779;28;20055;-77
2023/12/01 04:24:34;;;;;;;0.10;0.10;;;15.70;99.90;;;;;;4963830;28;20015;-76
2023/12/01 04:27:06;;;;;;;0.10;0.10;;;15.70;99.90;;;;;;4983908;28;20412;-76
2023/12/01 04:29:32;;;;;;;0.10;0.10;;;15.70;99.90;;;;;;4982630;28;20026;-76
2023/12/01 04:31:58;;;;;;;0.10;0.10;;;15.70;99.90;;;;;;4981031;28;20021;-75
2023/12/01 04:34:26;;;;;;;0.05;0.05;;;15.70;99.90;;;;;;4981229;28;20091;-80
2023/12/01 04:36:53;;;;;;;0.30;0.30;;;15.80;99.90;;;;;;4981298;28;20029;-78
2023/12/01 04:39:20;;;;;;;0.10;0.10;;;15.80;99.90;;;;;;4963515;28;20145;-84
2023/12/01 04:41:47;;;;;;;0.10;0.10;;;15.70;99.90;;;;;;4963915;28;20619;-78
2023/12/01 04:44:13;;;;;;;0.10;0.10;;;15.80;99.90;;;;;;4963675;28;20028;-78
2023/12/01 04:46:39;;;;;;;0.10;0.10;;;15.70;99.90;;;;;;4980312;28;20030;-82
2023/12/01 04:49:08;;;;;;;0.10;0.10;;;15.70;99.90;;;;;;4980956;28;20700;-76
2023/12/01 04:51:37;;;;;;;0.10;0.10;;;15.70;99.90;;;;;;4962859;28;20582;-77
2023/12/01 04:54:07;;;;;;;0.10;0.10;;;15.80;99.90;;;;;;4969839;28;20022;-76
2023/12/01 04:56:33;;;;;;;0.10;0.10;;;15.80;99.90;;;;;;4983443;28;20585;-75
2023/12/01 04:59:00;;;;;;;0.10;0.10;;;15.80;99.90;;;;;;4965893;28;20311;-76
2023/12/01 05:01:26;;;;;;;0.10;0.10;;;15.80;99.90;;;;;;4980937;28;20013;-76
2023/12/01 05:03:52;;;;;;;0.10;0.10;;;15.80;99.90;;;;;;4980620;28;20030;-76
2023/12/01 05:06:18;;;;;;;0.10;0.10;;;15.80;99.90;;;;;;4962659;28;20651;-77
2023/12/01 05:08:44;;;;;;;0.10;0.10;;;15.80;99.90;;;;;;4980013;28;20028;-76
2023/12/01 05:11:11;;;;;;;0.10;0.10;;;15.90;99.90;;;;;;4980109;28;20092;-82
2023/12/01 05:13:36;;;;;;;0.10;0.10;;;15.90;99.90;;;;;;4980031;28;20018;-77
2023/12/01 05:16:04;;;;;;;0.10;0.10;;;15.90;99.90;;;;;;4981476;28;20085;-81
2023/12/01 05:18:30;;;;;;;0.10;0.10;;;15.80;99.90;;;;;;4983928;28;20021;-76
2023/12/01 05:20:56;;;;;;;0.80;0.80;;;15.90;99.90;;;;;;4980545;28;20662;-75
2023/12/01 05:23:25;;;;;;;0.10;0.10;;;15.80;99.90;;;;;;4979831;28;20122;-76
2023/12/01 05:25:50;;;;;;;0.10;0.10;;;15.90;99.90;;;;;;4980346;28;20232;-78
2023/12/01 05:28:17;;;;;;;0.10;0.10;;;15.90;99.90;;;;;;4979523;28;20740;-76
2023/12/01 05:30:48;;;;;;;0.10;0.10;;;15.90;99.90;;;;;;4962623;28;20062;-76
2023/12/01 05:33:14;;;;;;;0.10;0.10;;;16.00;99.90;;;;;;4983712;28;20275;-78
2023/12/01 05:35:42;;;;;;;4.85;2.55;;;15.90;99.90;;;;;;4979903;28;20038;-77
2023/12/01 05:38:08;;;;;;;0.10;0.10;;;16.00;99.90;;;;;;4985176;28;20046;-79
2023/12/01 05:40:38;;;;;;;0.10;0.10;;;16.00;99.90;;;;;;4982562;28;20065;-79
2023/12/01 05:43:06;;;;;;;0.10;0.10;;;16.00;99.90;;;;;;4982357;28;20415;-76
2023/12/01 05:45:36;;;;;;;0.00;0.00;;;15.90;99.90;;;;;;4980495;28;20090;-80
2023/12/01 05:48:11;;;;;;;0.10;0.10;;;16.00;99.90;;;;;;4979659;28;20010;-80
2023/12/01 05:50:38;;;;;;;0.10;0.10;;;16.00;99.90;;;;;;4979952;28;20045;-77
2023/12/01 05:53:07;;;;;;;0.63;0.63;;;16.00;99.90;;;;;;4983570;28;20023;-78
2023/12/01 05:55:34;;;;;;;0.10;0.10;;;16.00;99.90;;;;;;4981823;28;20018;-88
2023/12/01 05:58:01;;;;;;;0.10;0.10;;;15.90;99.90;;;;;;4979892;28;20030;-79
2023/12/01 06:00:29;;;;;;;0.10;0.10;;;16.00;99.90;;;;;;4984625;28;20032;-78
2023/12/01 06:02:57;;;;;;;0.08;0.08;;;16.10;99.90;;;;;;4980903;28;20089;-76
2023/12/01 06:05:23;;;;;;;0.10;0.10;;;16.00;99.90;;;;;;4979772;28;20026;-80
2023/12/01 06:07:57;;;;;;;0.10;0.10;;;16.00;99.90;;;;;;4979418;28;20029;-76
2023/12/01 06:10:24;;;;;;;0.10;0.10;;;16.10;99.90;;;;;;4979032;28;20110;-80
2023/12/01 06:12:53;;;;;;;0.10;0.10;;;16.10;99.90;;;;;;4981559;28;20678;-78
2023/12/01 06:15:19;;;;;;;0.10;0.10;;;16.10;99.90;;;;;;4985889;28;20595;-79
2023/12/01 06:17:46;;;;;;;0.10;0.10;;;16.10;99.90;;;;;;4984004;28;20058;-76
2023/12/01 06:20:17;;;;;;;0.10;0.10;;;16.00;99.90;;;;;;4987114;28;20560;-77
2023/12/01 06:22:46;;;;;;;0.25;0.25;;;16.10;99.90;;;;;;4983788;28;20311;-77
2023/12/01 06:25:12;;;;;;;0.73;0.73;;;16.00;99.90;;;;;;4966098;28;20428;-79
2023/12/01 06:27:40;;;;;;;0.10;0.10;;;16.00;99.90;;;;;;4966765;28;20034;-77
2023/12/01 06:30:14;;;;;;;0.35;0.35;;;16.00;99.90;;;;;;4985346;28;20325;-83
2023/12/01 06:32:40;;;;;;;0.10;0.10;;;16.00;99.90;;;;;;4983117;28;20621;-79
2023/12/01 06:35:15;;;;;;;0.10;0.10;;;16.10;99.90;;;;;;4983597;28;20014;-80
2023/12/01 06:37:42;;;;;;;0.10;0.10;;;16.10;99.90;;;;;;4982962;28;20026;-79
2023/12/01 06:40:12;;;;;;;0.10;0.10;;;16.20;99.90;;;;;;4983696;28;20033;-79
2023/12/01 06:42:46;;;;;;;0.10;0.10;;;16.20;99.90;;;;;;4983644;28;20634;-77
2023/12/01 06:45:13;;;;;;;0.10;0.10;;;16.10;99.90;;;;;;4983526;28;20061;-80
2023/12/01 06:47:41;;;;;;;0.10;0.10;;;16.10;99.90;;;;;;4983086;28;20015;-77
2023/12/01 06:50:14;;;;;;;0.32;0.32;;;16.20;99.90;;;;;;4982759;28;20069;-78
2023/12/01 06:52:49;;;;;;;0.10;0.10;;;16.30;99.90;;;;;;4983376;28;20295;-77
2023/12/01 06:55:16;;;;;;;0.10;0.10;;;16.30;99.90;;;;;;4968918;28;20038;-76
2023/12/01 06:57:45;;;;;;;0.30;0.30;;;16.30;99.90;;;;;;4986568;28;20007;-76
2023/12/01 07:00:29;;;;;;;0.10;0.10;;;16.30;99.90;;;;;;4967880;28;20038;-80
2023/12/01 07:03:00;;;;;;;0.10;0.10;;;16.30;99.90;;;;;;4985531;28;20026;-81
2023/12/01 07:05:28;;;;;;;0.10;0.10;;;16.30;99.90;;;;;;4968459;28;20212;-78
2023/12/01 07:07:54;;;;;;;0.10;0.10;;;16.30;99.90;;;;;;4983314;28;20019;-82
2023/12/01 07:10:23;;;;;;;0.10;0.10;;;16.40;99.90;;;;;;4983482;28;20560;-83
2023/12/01 07:12:50;;;;;;;0.10;0.10;;;16.40;99.90;;;;;;4983863;28;20574;-77
2023/12/01 07:15:20;;;;;;;0.77;0.73;;;16.40;99.90;;;;;;4985879;28;20034;-80
2023/12/01 07:17:52;;;;;;;1.65;1.55;;;16.40;99.90;;;;;;4985258;28;20050;-78
2023/12/01 07:20:19;;;;;;;0.10;0.10;;;16.30;99.90;;;;;;4984761;28;20027;-89
2023/12/01 07:22:52;;;;;;;0.10;0.10;;;16.50;99.90;;;;;;4991584;28;20077;-76
2023/12/01 07:25:21;;;;;;;0.10;0.10;;;16.60;99.90;;;;;;4982939;28;20022;-77
2023/12/01 07:28:04;;;;;;;0.10;0.10;;;16.60;99.90;;;;;;4982160;28;20137;-76
2023/12/01 07:30:33;;;;;;;0.10;0.10;;;16.60;99.90;;;;;;4982029;28;20728;-83
2023/12/01 07:33:03;;;;;;;0.20;0.20;;;16.70;99.90;;;;;;4981493;28;20018;-79
2023/12/01 07:35:29;;;;;;;0.10;0.10;;;16.70;99.90;;;;;;4973994;28;20512;-77
2023/12/01 07:37:55;;;;;;;0.10;0.10;;;16.70;99.90;;;;;;4982292;28;20023;-78
2023/12/01 07:40:21;;;;;;;0.10;0.10;;;16.70;99.90;;;;;;4975204;28;20648;-76
2023/12/01 07:42:48;;;;;;;0.22;0.22;;;16.60;99.90;;;;;;4946973;28;20085;-78
2023/12/01 07:45:17;;;;;;;0.10;0.10;;;16.70;99.90;;;;;;4964462;28;20116;-77
2023/12/01 07:47:48;;;;;;;0.10;0.10;;;16.70;99.90;;;;;;4944880;28;20035;-78
2023/12/01 07:50:15;;;;;;;0.10;0.10;;;16.80;99.90;;;;;;4964827;28;20097;-74
2023/12/01 07:52:42;;;;;;;0.10;0.10;;;16.70;99.90;;;;;;4966835;28;20019;-79
2023/12/01 07:55:09;;;;;;;0.10;0.10;;;16.70;99.90;;;;;;4964286;28;20015;-88
2023/12/01 07:57:35;;;;;;;0.60;0.55;;;16.80;99.90;;;;;;4947578;28;20126;-77
2023/12/01 08:00:02;;;;;;;0.10;0.10;;;16.80;99.90;;;;;;4964336;28;20182;-76
2023/12/01 08:02:28;;;;;;;0.10;0.10;;;16.80;99.90;;;;;;4961622;28;20114;-76
2023/12/01 08:04:54;;;;;;;0.05;0.05;;;16.80;99.90;;;;;;4961818;28;20297;-77
2023/12/01 08:07:19;;;;;;;0.10;0.10;;;16.80;99.90;;;;;;4961186;28;20078;-76
2023/12/01 08:09:45;;;;;;;0.10;0.10;;;16.90;99.90;;;;;;4961169;28;20110;-77
2023/12/01 08:12:11;;;;;;;0.10;0.10;;;16.90;99.90;;;;;;4945886;28;20027;-76
2023/12/01 08:14:37;;;;;;;0.75;0.75;;;16.90;99.90;;;;;;4961888;28;20022;-76
2023/12/01 08:17:03;;;;;;;0.10;0.10;;;16.90;99.90;;;;;;4963434;28;20082;-78
2023/12/01 08:19:29;;;;;;;0.10;0.10;;;17.00;99.90;;;;;;4961994;28;20019;-78
2023/12/01 08:21:55;;;;;;;0.10;0.10;;;17.00;99.90;;;;;;4961277;28;20061;-79
2023/12/01 08:24:21;;;;;;;0.10;0.10;;;17.10;99.90;;;;;;4961670;28;20015;-76
2023/12/01 08:26:47;;;;;;;0.10;0.10;;;17.10;99.90;;;;;;4963901;28;20018;-78
2023/12/01 08:29:13;;;;;;;0.10;0.10;;;17.00;99.90;;;;;;4967650;28;20011;-76
2023/12/01 08:31:39;;;;;;;0.10;0.10;;;17.00;99.90;;;;;;4962794;28;20055;-78
2023/12/01 08:34:11;;;;;;;0.10;0.10;;;17.00;99.90;;;;;;4961386;28;20508;-76
2023/12/01 08:36:37;;;;;;;0.00;0.00;;;16.90;99.90;;;;;;4964387;28;20033;-76
2023/12/01 08:39:04;;;;;;;0.47;0.47;;;17.00;99.90;;;;;;4967223;28;20027;-76
2023/12/01 08:41:30;;;;;;;0.10;0.10;;;16.90;99.90;;;;;;4966331;28;20496;-76
2023/12/01 08:43:56;;;;;;;0.10;0.10;;;16.70;99.90;;;;;;4948007;28;20034;-79
2023/12/01 08:46:22;;;;;;;0.10;0.10;;;16.90;99.90;;;;;;4961114;28;20532;-81
2023/12/01 08:48:48;;;;;;;0.80;0.80;;;17.00;99.90;;;;;;4961294;28;20082;-77
2023/12/01 08:51:14;;;;;;;0.10;0.10;;;17.00;99.90;;;;;;4945422;28;20092;-76
2023/12/01 08:53:39;;;;;;;0.75;0.75;;;17.10;99.90;;;;;;4960899;28;20065;-77
2023/12/01 08:56:07;;;;;;;0.22;0.22;;;17.00;99.90;;;;;;4960428;28;20665;-77
2023/12/01 08:58:33;;;;;;;0.10;0.10;;;17.10;99.90;;;;;;4960864;28;20044;-76
2023/12/01 09:00:59;;;;;;;0.10;0.10;;;17.20;99.90;;;;;;4961074;28;20618;-78
2023/12/01 09:03:24;;;;;;;0.10;0.10;;;17.30;99.90;;;;;;4960859;28;20023;-77
2023/12/01 09:05:50;;;;;;;1.13;0.82;;;17.30;99.90;;;;;;4960765;28;20686;-76
2023/12/01 09:08:16;;;;;;;0.10;0.10;;;17.30;99.90;;;;;;4960661;28;20687;-77
2023/12/01 09:10:42;;;;;;;0.10;0.10;;;17.30;99.90;;;;;;4960369;28;20578;-80
2023/12/01 09:13:09;;;;;;;0.10;0.10;;;17.30;99.90;;;;;;4960454;28;20019;-78
2023/12/01 09:15:35;;;;;;;0.10;0.10;;;17.40;99.90;;;;;;4960325;28;20236;-77
2023/12/01 09:18:00;;;;;;;0.10;0.10;;;17.40;99.90;;;;;;4965281;28;20107;-80
2023/12/01 09:20:26;;;;;;;0.10;0.10;;;17.40;99.90;;;;;;4960417;28;20077;-75
2023/12/01 09:22:52;;;;;;;0.10;0.10;;;17.50;99.90;;;;;;4960453;28;20059;-82
2023/12/01 09:25:18;;;;;;;0.10;0.10;;;;;;;;;;4960575;28;20025;-78
2023/12/01 09:27:44;;;;;;;0.10;0.10;;;17.90;99.90;;;;;;4960266;28;20120;-77
2023/12/01 09:30:13;;;;;;;0.10;0.10;;;18.00;99.90;;;;;;4961319;28;20577;-80
2023/12/01 09:32:46;;;;;;;0.20;0.20;;;18.10;99.90;;;;;;4943148;28;20276;-75
2023/12/01 09:35:12;;;;;;;0.00;0.00;;;18.00;99.90;;;;;;4959745;28;20565;-77
2023/12/01 09:37:38;;;;;;;0.10;0.10;;;18.20;99.90;;;;;;4960030;28;20890;-84
2023/12/01 09:40:06;;;;;;;0.30;0.30;;;18.20;99.90;;;;;;4960058;28;20030;-78
2023/12/01 09:42:33;;;;;;;0.10;0.10;;;18.30;99.90;;;;;;4960235;28;20015;-76
2023/12/01 09:45:01;;;;;;;0.10;0.10;;;18.20;99.90;;;;;;4959892;28;20564;-75
2023/12/01 09:47:32;;;;;;;0.10;0.10;;;18.30;99.90;;;;;;4960058;28;20106;-84
2023/12/01 09:49:58;;;;;;;0.00;0.00;;;18.50;99.90;;;;;;4960040;28;20027;-80
2023/12/01 09:52:24;;;;;;;0.10;0.10;;;18.60;99.50;;;;;;4959502;28;20661;-75
2023/12/01 09:54:50;;;;;;;0.20;0.20;;;18.70;99.40;;;;;;4959860;28;20089;-88
2023/12/01 09:57:16;;;;;;;0.82;0.80;;;18.90;99.30;;;;;;4959585;28;20065;-76
2023/12/01 09:59:47;;;;;;;0.10;0.10;;;19.00;98.60;;;;;;4959885;28;20014;-80
2023/12/01 10:02:13;;;;;;;0.10;0.10;;;19.00;98.20;;;;;;4969997;28;20029;-77
2023/12/01 10:04:45;;;;;;;0.20;0.20;;;18.90;97.60;;;;;;4959920;28;20023;-76
2023/12/01 10:07:11;;;;;;;0.17;0.17;;;18.90;98.10;;;;;;4960339;28;20018;-76
2023/12/01 10:09:38;;;;;;;0.10;0.10;;;19.00;97.40;;;;;;4959780;28;20058;-84
2023/12/01 10:12:12;;;;;;;0.00;0.00;;;19.20;97.10;;;;;;4960141;28;20105;-76
2023/12/01 10:14:41;;;;;;;0.10;0.10;;;19.20;96.90;;;;;;4961450;28;20022;-78
2023/12/01 10:17:08;;;;;;;0.10;0.10;;;19.10;96.90;;;;;;4959820;28;20051;-76
2023/12/01 10:19:44;;;;;;;0.10;0.10;;;19.20;96.90;;;;;;4960055;28;20106;-77
2023/12/01 10:22:12;;;;;;;0.20;0.20;;;19.20;96.70;;;;;;4960085;28;20027;-76
2023/12/01 10:24:38;;;;;;;0.10;0.10;;;19.10;96.00;;;;;;4963116;28;20019;-76
2023/12/01 10:27:08;;;;;;;0.00;0.00;;;19.20;96.00;;;;;;4959737;28;20078;-87
2023/12/01 10:29:35;;;;;;;0.00;0.00;;;19.00;95.70;;;;;;4965904;28;20038;-75
2023/12/01 10:34:54;;;;;;;0.10;0.10;;;20.00;95.60;;;;;;4960112;28;20662;-79
2023/12/01 10:37:22;;;;;;;0.10;0.10;;;19.20;95.10;;;;;;4941299;28;20033;-79
2023/12/01 10:39:51;;;;;;;0.10;0.10;;;19.30;94.50;;;;;;4959120;28;20023;-76
2023/12/01 10:42:18;;;;;;;0.00;0.00;;;19.30;94.10;;;;;;4962447;28;20015;-78
2023/12/01 10:44:47;;;;;;;0.00;0.00;;;19.50;93.70;;;;;;4962639;28;20693;-78
2023/12/01 10:47:19;;;;;;;0.10;0.10;;;19.50;93.70;;;;;;4961708;28;20019;-76
2023/12/01 10:49:47;;;;;;;0.50;0.50;;;19.60;93.70;;;;;;4962218;28;20232;-78
2023/12/01 10:52:15;;;;;;;0.00;0.00;;;17.50;92.50;;;;;;4959353;28;20026;-77
2023/12/01 10:54:50;;;;;;;0.00;0.00;;;19.60;93.40;;;;;;4959612;28;20015;-77
2023/12/01 10:57:52;;;;;;;3.50;2.80;;;18.90;92.40;;;;;;4974082;28;20019;-77
2023/12/01 11:00:29;;;;;;;0.00;0.00;;;20.30;92.60;;;;;;4967172;28;20113;-76
2023/12/01 11:03:08;;;;;;;0.10;0.10;;;19.70;91.80;;;;;;4945311;28;20030;-75
2023/12/01 11:05:37;;;;;;;0.00;0.00;;;19.70;91.90;;;;;;4962603;28;20043;-77
2023/12/01 11:08:03;;;;;;;0.03;0.03;;;19.50;91.60;;;;;;4963549;28;20025;-76
2023/12/01 11:11:13;;;;;;;0.00;0.00;;;19.50;91.70;;;;;;4963417;28;20026;-75
2023/12/01 11:14:00;;;;;;;0.00;0.00;;;19.50;92.30;;;;;;4943109;29;20031;-76
2023/12/01 11:16:27;;;;;;;0.10;0.10;;;19.50;92.30;;;;;;4940527;29;20130;-75
2023/12/01 11:18:56;;;;;;;0.77;0.77;;;19.60;91.70;;;;;;4929146;29;20123;-76
2023/12/01 11:21:22;;;;;;;0.20;0.20;;;19.60;91.80;;;;;;4927978;29;20023;-83
2023/12/01 11:23:47;;;;;;;0.10;0.10;;;19.50;91.30;;;;;;4940150;29;20101;-76
2023/12/01 11:26:13;;;;;;;0.10;0.10;;;19.50;91.20;;;;;;4939705;29;20063;-78
2023/12/01 11:34:00;;;;;;;0.10;0.10;;;19.80;92.00;;;;;;4940620;29;20086;-76
2023/12/01 11:36:27;;;;;;;0.00;0.00;;;19.90;91.10;;;;;;4941071;29;20031;-76
2023/12/01 11:39:16;;;;;;;0.00;0.00;;;20.00;87.00;;;;;;4940093;29;20027;-75
2023/12/01 11:41:49;;;;;;;1.20;1.20;;;20.00;87.90;;;;;;4940157;29;20023;-74
2023/12/01 11:44:15;;;;;;;0.10;0.10;;;20.10;88.40;;;;;;4939995;29;20167;-74
2023/12/01 11:46:44;;;;;;;0.00;0.00;;;20.00;89.50;;;;;;4939804;29;20110;-74
2023/12/01 11:49:10;;;;;;;0.22;0.22;;;20.00;90.20;;;;;;4940004;29;20110;-79
2023/12/01 11:51:36;;;;;;;0.00;0.00;;;20.10;90.10;;;;;;4942143;29;20517;-75
2023/12/01 11:54:03;;;;;;;0.10;0.10;;;20.20;88.50;;;;;;4942855;29;20058;-78
2023/12/01 11:56:31;;;;;;;0.10;0.10;;;19.70;85.90;;;;;;4941798;29;20038;-75
2023/12/01 11:58:57;;;;;;;0.10;0.10;;;20.40;86.20;;;;;;4945053;29;20182;-76
2023/12/01 12:01:24;;;;;;;0.10;0.10;;;20.50;86.50;;;;;;4945498;29;20030;-78
2023/12/01 12:03:56;;;;;;;0.00;0.00;;;20.70;86.80;;;;;;4959183;28;20042;-76
2023/12/01 12:06:24;;;;;;;0.00;0.00;;;20.60;87.40;;;;;;4943099;28;20649;-81
2023/12/01 12:08:51;;;;;;;4.28;3.92;;;20.60;87.20;;;;;;4942502;28;20074;-82
2023/12/01 12:11:17;;;;;;;0.10;0.10;;;20.70;87.00;;;;;;4942283;29;20232;-77
2023/12/01 12:13:44;;;;;;;0.00;0.00;;;20.70;87.10;;;;;;4943660;29;20023;-83
2023/12/01 12:16:23;;;;;;;0.00;0.00;;;20.80;87.90;;;;;;4947758;28;20043;-85
2023/12/01 12:19:04;;;;;;;0.00;0.00;;;21.00;86.80;;;;;;4964017;28;20015;-83
2023/12/01 12:21:38;;;;;;;0.65;0.65;;;20.80;87.10;;;;;;4963974;28;20594;-79
2023/12/01 12:24:04;;;;;;;0.00;0.00;;;21.70;87.40;;;;;;4961834;28;20027;-92
2023/12/01 12:26:30;;;;;;;1.40;1.38;;;21.20;86.50;;;;;;4961869;28;20058;-76
2023/12/01 12:29:02;;;;;;;0.10;0.10;;;21.00;86.40;;;;;;4961020;28;20018;-77
2023/12/01 12:31:35;;;;;;;0.10;0.10;;;20.60;86.90;;;;;;4960637;28;20092;-78
2023/12/01 12:34:05;;;;;;;0.00;0.00;;;20.60;87.10;;;;;;4960656;28;20058;-81
2023/12/01 12:36:32;;;;;;;0.00;0.00;;;20.60;87.60;;;;;;4943645;28;20601;-75
2023/12/01 12:39:01;;;;;;;0.00;0.00;;;20.40;88.40;;;;;;4960442;28;20026;-78
2023/12/01 12:41:31;;;;;;;0.00;0.00;;;20.30;89.40;;;;;;4960949;28;20111;-76
2023/12/01 12:44:01;;;;;;;0.15;0.15;;;20.30;90.00;;;;;;4961000;28;20073;-76
2023/12/01 12:46:29;;;;;;;0.98;0.45;;;20.00;90.60;;;;;;4961099;28;20683;-78
2023/12/01 12:49:06;;;;;;;0.10;0.10;;;20.10;90.60;;;;;;4961456;28;20023;-78
2023/12/01 12:51:32;;;;;;;0.20;0.20;;;20.10;90.60;;;;;;4962120;28;20037;-77
2023/12/01 12:53:58;;;;;;;0.45;0.45;;;20.00;90.90;;;;;;4961358;28;20046;-77
2023/12/01 12:56:25;;;;;;;0.10;0.10;;;20.00;90.80;;;;;;4960467;28;20029;-76
2023/12/01 12:58:52;;;;;;;2.20;2.10;;;21.70;91.50;;;;;;4961012;28;20687;-77